Time;durP1;ratioP1;P1;durP2;ratioP2;P2;SDS_P1;SDS_P2;PMS_P1;PMS_P2;Temp;Humidity;BMP_temperature;BMP_pressure;BME280_temperature;BME280_humidity;BME280_pressure;Samples;Min_cycle;Max_cycle;Signal;HPM_P1;HPM_P2
2022/08/11 00:01:48;;;;;;;2.30;2.10;;;23.90;56.40;;;;;;5070063;28;20851;-80
2022/08/11 00:04:17;;;;;;;3.92;2.13;;;23.60;56.60;;;;;;5068433;28;20189;-79
2022/08/11 00:06:47;;;;;;;2.88;2.00;;;23.70;57.30;;;;;;5069812;28;20229;-80
2022/08/11 00:09:18;;;;;;;3.05;2.10;;;23.80;57.40;;;;;;5062128;28;20198;-80
2022/08/11 00:11:50;;;;;;;1.95;1.75;;;23.80;57.30;;;;;;5056343;28;20218;-79
2022/08/11 00:14:22;;;;;;;2.20;2.00;;;23.80;57.40;;;;;;5066502;28;20561;-79
2022/08/11 00:16:55;;;;;;;3.42;2.33;;;23.60;57.60;;;;;;5067391;28;20213;-79
2022/08/11 00:19:25;;;;;;;6.35;2.50;;;23.40;58.20;;;;;;5068763;28;20196;-79
2022/08/11 00:21:55;;;;;;;4.18;2.30;;;23.60;58.50;;;;;;5075991;28;20200;-79
2022/08/11 00:24:24;;;;;;;2.65;2.10;;;23.60;58.80;;;;;;5069237;28;20205;-79
2022/08/11 00:26:54;;;;;;;3.35;2.05;;;23.50;59.10;;;;;;5069680;28;20217;-79
2022/08/11 00:29:22;;;;;;;2.88;2.22;;;23.60;59.30;;;;;;5083772;28;20201;-79
2022/08/11 00:31:52;;;;;;;2.63;2.13;;;23.50;59.30;;;;;;5073764;28;20202;-79
2022/08/11 00:34:24;;;;;;;2.25;1.75;;;23.30;59.40;;;;;;5069120;28;20212;-79
2022/08/11 00:36:55;;;;;;;3.10;2.10;;;23.30;60.20;;;;;;5069870;28;20226;-79
2022/08/11 00:39:24;;;;;;;2.47;2.10;;;23.30;60.30;;;;;;5074853;28;20216;-80
2022/08/11 00:42:17;;;;;;;5.30;2.00;;;23.40;60.60;;;;;;5067516;28;20185;-79
2022/08/11 00:45:03;;;;;;;2.72;2.13;;;23.40;60.80;;;;;;5069544;28;20210;-79
2022/08/11 00:47:46;;;;;;;2.00;1.80;;;23.30;60.90;;;;;;5059718;28;21150;-80
2022/08/11 00:50:22;;;;;;;3.38;2.13;;;23.30;61.40;;;;;;5061860;28;20552;-79
2022/08/11 00:53:14;;;;;;;3.90;2.15;;;23.20;61.90;;;;;;5061493;28;20193;-79
2022/08/11 00:56:18;;;;;;;3.00;2.30;;;23.20;62.60;;;;;;5070997;28;20205;-79
2022/08/11 00:59:21;;;;;;;3.58;2.33;;;22.90;63.20;;;;;;5023414;28;20203;-79
2022/08/11 01:01:59;;;;;;;3.50;2.33;;;22.80;64.70;;;;;;5067702;28;20198;-79
2022/08/11 01:05:06;;;;;;;2.05;1.80;;;22.80;64.70;;;;;;5082424;28;20208;-79
2022/08/11 01:08:19;;;;;;;2.28;1.92;;;22.90;65.00;;;;;;5071143;28;20235;-79
2022/08/11 01:11:05;;;;;;;1.85;1.67;;;22.90;66.00;;;;;;4996969;28;20233;-79
2022/08/11 01:14:15;;;;;;;3.47;1.98;;;23.00;66.30;;;;;;5071881;28;20197;-79
2022/08/11 01:17:23;;;;;;;2.17;1.98;;;22.80;66.90;;;;;;5040423;28;20222;-79
2022/08/11 01:20:15;;;;;;;2.70;2.40;;;22.80;67.50;;;;;;5068179;28;20220;-79
2022/08/11 01:23:19;;;;;;;2.63;2.28;;;22.70;68.20;;;;;;5065519;28;20676;-79
2022/08/11 01:26:25;;;;;;;3.90;2.00;;;22.80;68.80;;;;;;5063014;28;20301;-79
2022/08/11 01:29:31;;;;;;;4.05;2.22;;;22.80;69.00;;;;;;5069513;28;20202;-79
2022/08/11 01:32:19;;;;;;;2.15;1.90;;;23.10;68.50;;;;;;5069716;28;20224;-79
2022/08/11 01:35:30;;;;;;;3.40;2.10;;;23.30;68.30;;;;;;5072630;28;20581;-79
2022/08/11 01:38:42;;;;;;;6.15;2.53;;;23.30;68.10;;;;;;5066223;28;20552;-79
2022/08/11 01:45:07;;;;;;;3.72;2.28;;;22.60;70.50;;;;;;5069376;28;20200;-79
2022/08/11 01:47:51;;;;;;;5.03;2.00;;;22.70;71.60;;;;;;5062912;28;20220;-79
2022/08/11 01:50:28;;;;;;;2.50;2.10;;;22.50;72.60;;;;;;5067453;28;20198;-79
2022/08/11 01:53:08;;;;;;;2.45;2.25;;;22.50;73.60;;;;;;5069457;28;20226;-79
2022/08/11 01:55:44;;;;;;;5.57;2.55;;;22.50;74.60;;;;;;5068022;28;20210;-79
2022/08/11 01:58:23;;;;;;;2.75;2.40;;;22.20;76.10;;;;;;5056640;28;20594;-79
2022/08/11 02:00:58;;;;;;;5.00;2.17;;;22.10;77.20;;;;;;5068194;28;20198;-79
2022/08/11 02:03:36;;;;;;;2.60;2.10;;;22.10;78.20;;;;;;5085729;28;20202;-79
2022/08/11 02:09:09;;;;;;;3.08;2.40;;;22.60;77.40;;;;;;5069893;28;20194;-79
2022/08/11 02:11:38;;;;;;;2.92;2.53;;;22.50;77.50;;;;;;5070972;28;20690;-79
2022/08/11 02:14:24;;;;;;;4.45;2.72;;;22.30;77.80;;;;;;5069545;28;20523;-79
2022/08/11 02:17:02;;;;;;;3.10;2.45;;;22.20;78.60;;;;;;5068670;28;20225;-79
2022/08/11 02:25:31;;;;;;;2.72;2.45;;;22.00;80.80;;;;;;5065887;28;20201;-79
2022/08/11 02:28:07;;;;;;;3.15;2.50;;;21.90;82.10;;;;;;5067261;28;20683;-79
2022/08/11 02:33:21;;;;;;;3.45;2.22;;;21.70;83.10;;;;;;5063514;28;20201;-79
2022/08/11 02:33:42;;;;;;;4.15;2.33;;;21.70;84.20;;;;;;5064623;28;21989;-79
2022/08/11 02:36:18;;;;;;;2.72;2.20;;;21.80;83.80;;;;;;5068018;28;20204;-79
2022/08/11 02:38:59;;;;;;;3.53;2.50;;;21.80;84.60;;;;;;5069045;28;20197;-79
2022/08/11 02:44:42;;;;;;;4.10;2.35;;;21.80;85.50;;;;;;5065198;28;20205;-79
2022/08/11 02:47:23;;;;;;;3.13;2.42;;;21.70;85.60;;;;;;5067139;28;20213;-79
2022/08/11 02:49:58;;;;;;;3.78;2.33;;;21.70;85.80;;;;;;5064529;28;20206;-79
2022/08/11 02:52:34;;;;;;;2.88;2.30;;;21.70;85.80;;;;;;5067387;28;20220;-79
2022/08/11 02:55:19;;;;;;;3.55;2.53;;;21.40;86.90;;;;;;5067960;28;20189;-79
2022/08/11 02:57:52;;;;;;;2.28;2.08;;;21.50;88.40;;;;;;5066048;28;20233;-79
2022/08/11 03:00:30;;;;;;;5.63;2.50;;;21.70;87.30;;;;;;5069286;28;20198;-79
2022/08/11 03:03:15;;;;;;;3.97;2.90;;;21.90;86.80;;;;;;5065554;28;20197;-79
2022/08/11 03:05:52;;;;;;;3.92;2.40;;;21.80;85.90;;;;;;5068026;28;20198;-79
2022/08/11 03:08:31;;;;;;;2.67;2.42;;;21.70;87.30;;;;;;5067899;28;20718;-79
2022/08/11 03:16:56;;;;;;;2.42;2.22;;;21.50;88.10;;;;;;5069274;28;20224;-79
2022/08/11 03:19:30;;;;;;;3.20;2.53;;;21.50;88.00;;;;;;5065470;28;20205;-79
2022/08/11 03:22:09;;;;;;;7.07;2.35;;;21.30;89.40;;;;;;5065558;28;20197;-79
2022/08/11 03:24:55;;;;;;;3.75;2.65;;;21.20;89.90;;;;;;5068457;28;20194;-79
2022/08/11 03:27:35;;;;;;;5.63;3.05;;;21.00;90.40;;;;;;5065946;28;20229;-79
2022/08/11 03:30:14;;;;;;;3.95;2.78;;;20.90;91.20;;;;;;5064972;28;20212;-79
2022/08/11 03:36:17;;;;;;;2.78;2.20;;;20.70;91.60;;;;;;5006346;28;20191;-79
2022/08/11 03:38:56;;;;;;;4.78;2.70;;;21.00;91.60;;;;;;5012104;28;20210;-79
2022/08/11 03:41:43;;;;;;;2.65;2.45;;;21.00;91.40;;;;;;5051040;28;20193;-79
2022/08/11 03:44:34;;;;;;;4.13;2.53;;;21.00;91.10;;;;;;5054373;28;20194;-79
2022/08/11 03:47:45;;;;;;;3.70;2.70;;;20.90;91.60;;;;;;5070002;28;20217;-79
2022/08/11 03:50:28;;;;;;;4.70;2.63;;;20.90;91.40;;;;;;4988767;28;20200;-79
2022/08/11 03:53:09;;;;;;;4.00;2.42;;;21.10;91.30;;;;;;5064395;28;20214;-79
2022/08/11 03:56:06;;;;;;;3.67;2.80;;;21.10;91.50;;;;;;5067116;28;20189;-79
2022/08/11 03:59:16;;;;;;;3.45;2.50;;;21.20;91.20;;;;;;5052733;28;20214;-79
2022/08/11 04:02:17;;;;;;;4.43;2.42;;;20.90;91.50;;;;;;5058401;28;20656;-79
2022/08/11 04:05:14;;;;;;;4.88;2.97;;;21.00;91.30;;;;;;5070304;28;20209;-79
2022/08/11 04:08:16;;;;;;;4.53;2.70;;;21.20;91.20;;;;;;5070256;28;20214;-79
2022/08/11 04:11:11;;;;;;;3.83;2.53;;;21.00;91.60;;;;;;5070272;28;20208;-79
2022/08/11 04:17:32;;;;;;;4.55;3.45;;;21.10;91.40;;;;;;5069088;28;20209;-79
2022/08/11 04:20:41;;;;;;;4.15;2.70;;;21.10;91.70;;;;;;5068517;28;20194;-79
2022/08/11 04:23:26;;;;;;;4.30;2.85;;;20.90;92.10;;;;;;5067908;28;20197;-79
2022/08/11 04:26:32;;;;;;;3.22;2.72;;;20.70;92.40;;;;;;5069139;28;20202;-79
2022/08/11 04:29:10;;;;;;;5.07;2.80;;;20.80;92.30;;;;;;5071281;28;20198;-79
2022/08/11 04:31:43;;;;;;;4.93;2.90;;;20.90;92.50;;;;;;5068750;28;20197;-79
2022/08/11 04:34:41;;;;;;;5.03;2.72;;;20.80;92.40;;;;;;5068635;28;20193;-79
2022/08/11 04:37:36;;;;;;;3.58;2.78;;;20.70;92.70;;;;;;5070287;28;20217;-79
2022/08/11 04:40:43;;;;;;;3.28;2.42;;;20.80;92.60;;;;;;5065824;28;20206;-79
2022/08/11 04:43:58;;;;;;;3.00;2.67;;;20.90;92.80;;;;;;5089307;28;22065;-79
2022/08/11 04:46:53;;;;;;;3.97;2.90;;;20.70;93.00;;;;;;5073785;28;20568;-79
2022/08/11 05:02:31;;;;;;;2.88;2.45;;;20.70;93.00;;;;;;5071133;28;20193;-79
2022/08/11 05:05:33;;;;;;;4.18;2.92;;;20.70;93.20;;;;;;5069250;28;20213;-79
2022/08/11 05:08:32;;;;;;;5.15;2.67;;;20.80;93.10;;;;;;5070392;28;20224;-80
2022/08/11 05:11:18;;;;;;;4.28;2.50;;;20.90;92.80;;;;;;5072570;28;20189;-79
2022/08/11 05:36:52;;;;;;;4.43;2.65;;;22.00;89.00;;;;;;5071913;28;20228;-81
2022/08/11 05:56:33;;;;;;;5.78;3.45;;;22.40;88.10;;;;;;5069956;28;20201;-81
2022/08/11 05:59:00;;;;;;;8.10;3.95;;;22.30;88.30;;;;;;5074494;28;20671;-80
2022/08/11 06:01:31;;;;;;;5.43;3.45;;;22.00;89.20;;;;;;5073905;28;20703;-80
2022/08/11 06:04:15;;;;;;;4.32;3.33;;;22.10;89.00;;;;;;5071608;28;20198;-81
2022/08/11 06:06:53;;;;;;;7.15;2.92;;;21.80;89.80;;;;;;5066114;28;20218;-81
2022/08/11 06:09:29;;;;;;;4.97;3.15;;;21.90;90.10;;;;;;5067932;28;20190;-81
2022/08/11 06:12:02;;;;;;;7.13;3.10;;;21.90;90.10;;;;;;5059734;28;20206;-83
2022/08/11 06:14:31;;;;;;;5.22;3.10;;;21.90;90.30;;;;;;5069927;28;20228;-83
2022/08/11 06:17:01;;;;;;;4.10;2.67;;;22.10;90.30;;;;;;5075054;28;20210;-81
2022/08/11 06:19:46;;;;;;;4.85;3.20;;;22.10;90.00;;;;;;5073280;28;20202;-81
2022/08/11 06:22:19;;;;;;;5.80;3.20;;;22.00;90.10;;;;;;5063111;28;20205;-81
2022/08/11 06:24:53;;;;;;;3.58;2.50;;;22.00;89.70;;;;;;5064170;28;20209;-81
2022/08/11 06:27:25;;;;;;;5.50;2.90;;;22.20;89.10;;;;;;5073131;28;20717;-81
2022/08/11 06:29:55;;;;;;;5.60;3.00;;;22.30;87.10;;;;;;5067629;28;20202;-80
2022/08/11 06:32:26;;;;;;;4.57;2.78;;;22.40;86.20;;;;;;5055036;28;20217;-82
2022/08/11 06:35:03;;;;;;;3.10;2.63;;;22.50;86.50;;;;;;5072447;28;20205;-81
2022/08/11 06:38:05;;;;;;;7.00;2.80;;;22.30;85.40;;;;;;5068513;28;20220;-81
2022/08/11 06:40:37;;;;;;;7.03;2.90;;;22.30;86.00;;;;;;5065928;28;20663;-82
2022/08/11 06:43:19;;;;;;;3.50;2.90;;;22.50;86.40;;;;;;5072109;28;20193;-81
2022/08/11 06:46:01;;;;;;;7.50;3.25;;;22.60;85.40;;;;;;5067774;28;20205;-84
2022/08/11 06:48:31;;;;;;;3.20;2.90;;;23.00;85.30;;;;;;5072218;28;20218;-83
2022/08/11 06:51:11;;;;;;;8.65;3.10;;;23.00;84.30;;;;;;5070319;28;20206;-82
2022/08/11 06:53:44;;;;;;;3.67;2.90;;;23.10;84.30;;;;;;5064676;28;20213;-83
2022/08/11 07:01:57;;;;;;;4.82;3.22;;;23.30;82.30;;;;;;5067677;28;20205;-83
2022/08/11 07:04:32;;;;;;;6.15;3.38;;;23.40;81.30;;;;;;5069930;28;20189;-82
2022/08/11 07:16:20;;;;;;;5.60;3.47;;;23.90;80.60;;;;;;5062244;28;20668;-83
2022/08/11 07:30:05;;;;;;;6.30;3.95;;;24.00;79.30;;;;;;5067261;28;20205;-83
2022/08/11 07:32:41;;;;;;;6.25;3.40;;;24.10;78.80;;;;;;5072880;28;20204;-83
2022/08/11 07:35:13;;;;;;;4.78;3.08;;;24.10;78.60;;;;;;5072963;28;20217;-83
2022/08/11 07:37:43;;;;;;;5.13;3.25;;;24.20;78.50;;;;;;5074377;28;20225;-83
2022/08/11 07:40:11;;;;;;;3.47;3.17;;;24.20;77.80;;;;;;5056811;28;20198;-83
2022/08/11 07:42:45;;;;;;;4.18;3.33;;;24.30;78.20;;;;;;5072998;28;20204;-83
2022/08/11 07:53:33;;;;;;;6.57;3.75;;;24.60;77.00;;;;;;5073372;28;20212;-83
2022/08/11 07:56:05;;;;;;;4.13;3.50;;;24.70;76.00;;;;;;5073462;28;20201;-83
2022/08/11 08:18:04;;;;;;;8.57;3.88;;;25.20;72.40;;;;;;5072823;28;20213;-83
2022/08/11 08:20:38;;;;;;;3.92;3.50;;;25.40;70.20;;;;;;5072475;28;20198;-83
2022/08/11 08:23:06;;;;;;;4.22;3.38;;;25.40;69.40;;;;;;5073786;28;20201;-82
2022/08/11 08:25:35;;;;;;;4.85;3.22;;;25.50;67.50;;;;;;5072500;28;20194;-83
2022/08/11 08:28:06;;;;;;;5.30;3.80;;;25.50;68.60;;;;;;5073319;28;20222;-83
2022/08/11 08:30:49;;;;;;;4.38;3.13;;;25.60;69.70;;;;;;5070598;28;20194;-83
2022/08/11 08:33:20;;;;;;;6.45;4.68;;;25.70;69.50;;;;;;5069403;28;20217;-82
2022/08/11 08:36:15;;;;;;;5.32;3.63;;;25.80;68.70;;;;;;5068021;28;20197;-83
2022/08/11 08:38:47;;;;;;;7.13;3.78;;;25.90;65.90;;;;;;5068424;28;20555;-82
2022/08/11 08:41:19;;;;;;;6.63;3.72;;;25.90;64.30;;;;;;5067679;28;20209;-81
2022/08/11 08:43:51;;;;;;;5.05;3.40;;;26.00;66.30;;;;;;5071213;28;20208;-82
2022/08/11 08:46:25;;;;;;;5.32;3.28;;;26.00;67.60;;;;;;5058835;28;20204;-82
2022/08/11 08:48:54;;;;;;;5.57;3.47;;;26.00;66.30;;;;;;5071396;28;20194;-82
2022/08/11 08:51:36;;;;;;;3.65;3.28;;;26.20;64.40;;;;;;5074146;28;20213;-83
2022/08/11 08:54:06;;;;;;;4.82;3.22;;;26.20;62.70;;;;;;5063003;28;20222;-82
2022/08/11 08:56:38;;;;;;;6.25;3.47;;;26.30;63.20;;;;;;5069181;28;20204;-83
2022/08/11 08:59:06;;;;;;;7.43;3.50;;;26.30;62.80;;;;;;5066999;28;20197;-82
2022/08/11 09:01:40;;;;;;;4.97;4.07;;;26.40;62.50;;;;;;5067311;28;20205;-82
2022/08/11 09:04:08;;;;;;;3.72;3.13;;;26.40;62.90;;;;;;5075916;28;20198;-83
2022/08/11 09:07:10;;;;;;;4.30;3.38;;;26.50;60.40;;;;;;5074160;28;20228;-80
2022/08/11 09:09:44;;;;;;;4.80;3.42;;;26.60;60.20;;;;;;5070756;28;20197;-80
2022/08/11 09:12:12;;;;;;;3.70;3.40;;;26.50;60.20;;;;;;5074426;28;20216;-80
2022/08/11 09:15:02;;;;;;;5.65;3.60;;;26.60;59.50;;;;;;5071902;28;20206;-80
2022/08/11 09:18:02;;;;;;;6.22;3.78;;;26.70;59.80;;;;;;5064383;28;20228;-81
2022/08/11 09:20:42;;;;;;;3.63;3.08;;;26.80;59.70;;;;;;5069316;28;20202;-80
2022/08/11 09:28:45;;;;;;;6.85;3.17;;;26.80;59.10;;;;;;5070659;28;20192;-80
2022/08/11 09:31:14;;;;;;;4.63;3.70;;;26.90;58.90;;;;;;5068343;28;20194;-80
2022/08/11 09:33:46;;;;;;;4.60;4.20;;;26.90;59.30;;;;;;5073316;28;20197;-81
2022/08/11 09:42:16;;;;;;;4.38;3.20;;;27.10;56.20;;;;;;5070993;28;20206;-82
2022/08/11 09:44:47;;;;;;;6.47;2.92;;;27.20;53.60;;;;;;5073565;28;20200;-80
2022/08/11 09:47:28;;;;;;;4.60;3.55;;;27.20;51.90;;;;;;5070624;28;20568;-80
2022/08/11 09:49:59;;;;;;;3.67;2.72;;;27.30;51.80;;;;;;5073455;28;20198;-80
2022/08/11 09:52:32;;;;;;;3.13;2.90;;;27.40;52.00;;;;;;5073369;28;20204;-80
2022/08/11 09:55:17;;;;;;;4.80;3.20;;;27.40;52.30;;;;;;5074292;28;20206;-80
2022/08/11 09:58:15;;;;;;;8.50;3.40;;;27.50;51.30;;;;;;5071105;28;20218;-80
2022/08/11 10:00:49;;;;;;;2.70;2.50;;;27.60;51.70;;;;;;5067696;28;20628;-80
2022/08/11 10:03:27;;;;;;;3.55;2.53;;;27.60;49.00;;;;;;5071843;28;20663;-80
2022/08/11 10:08:56;;;;;;;3.10;2.83;;;27.80;44.40;;;;;;5073191;28;20193;-80
2022/08/11 10:11:36;;;;;;;3.05;2.63;;;27.80;46.10;;;;;;5072326;28;20204;-81
2022/08/11 10:16:56;;;;;;;4.70;3.60;;;27.80;45.00;;;;;;5066716;28;20244;-80
2022/08/11 10:19:49;;;;;;;4.05;3.50;;;27.80;44.30;;;;;;5073196;28;20194;-80
2022/08/11 10:27:57;;;;;;;5.50;3.80;;;28.00;44.80;;;;;;5070193;28;20225;-80
2022/08/11 10:34:02;;;;;;;3.40;3.10;;;28.10;44.10;;;;;;5006741;28;20188;-80
2022/08/11 10:36:31;;;;;;;5.38;3.17;;;28.20;44.00;;;;;;5001393;28;20195;-80
2022/08/11 10:39:01;;;;;;;4.75;3.15;;;28.40;43.80;;;;;;5051056;28;20670;-80
2022/08/11 10:44:43;;;;;;;3.80;3.47;;;28.50;42.80;;;;;;5068307;28;20194;-80
2022/08/11 11:01:10;;;;;;;7.18;3.78;;;28.80;41.40;;;;;;5069869;28;20197;-80
2022/08/11 11:03:39;;;;;;;4.60;3.35;;;28.90;41.80;;;;;;5066636;28;20185;-80
2022/08/11 11:06:24;;;;;;;4.88;3.38;;;29.00;41.00;;;;;;5064156;28;20193;-80
2022/08/11 11:08:57;;;;;;;4.25;3.33;;;28.90;41.20;;;;;;5061665;28;20198;-80
2022/08/11 11:17:54;;;;;;;4.22;3.40;;;29.20;41.30;;;;;;5069504;28;20197;-80
2022/08/11 11:20:26;;;;;;;3.80;3.38;;;29.20;39.40;;;;;;5017761;28;20744;-81
2022/08/11 11:22:56;;;;;;;4.97;3.78;;;29.40;39.30;;;;;;5023586;28;20206;-82
2022/08/11 11:25:36;;;;;;;5.70;3.75;;;29.60;39.80;;;;;;5059959;28;20209;-82
2022/08/11 11:28:26;;;;;;;4.18;3.65;;;29.60;40.80;;;;;;5073834;28;20222;-81
2022/08/11 11:31:06;;;;;;;4.88;3.50;;;29.80;41.10;;;;;;5067217;28;20678;-80
2022/08/11 11:33:57;;;;;;;3.78;3.47;;;29.90;40.20;;;;;;5065936;28;20204;-80
2022/08/11 11:36:34;;;;;;;3.60;3.30;;;30.00;39.80;;;;;;5066027;28;20216;-80
2022/08/11 11:39:02;;;;;;;5.50;3.70;;;30.00;37.70;;;;;;5072366;28;20194;-80
2022/08/11 11:41:30;;;;;;;3.80;3.10;;;30.00;38.40;;;;;;5065554;28;20570;-79
2022/08/11 11:44:00;;;;;;;3.95;3.17;;;29.90;39.10;;;;;;5060819;28;20194;-80
2022/08/11 11:46:32;;;;;;;3.95;3.40;;;30.00;38.60;;;;;;5077680;28;20197;-79
2022/08/11 11:49:06;;;;;;;4.25;2.97;;;30.10;37.90;;;;;;5073317;28;20216;-80
2022/08/11 11:51:34;;;;;;;3.88;3.58;;;30.00;37.90;;;;;;5071231;28;20188;-79
2022/08/11 11:54:09;;;;;;;3.60;3.28;;;30.10;37.70;;;;;;5071713;28;20208;-79
2022/08/11 11:56:37;;;;;;;5.70;3.45;;;30.30;36.90;;;;;;5070322;28;20197;-79
2022/08/11 12:01:51;;;;;;;4.82;3.38;;;30.50;37.30;;;;;;5071973;28;20197;-79
2022/08/11 12:04:23;;;;;;;4.85;3.50;;;30.50;36.80;;;;;;5068786;28;20198;-79
2022/08/11 12:08:08;;;;;;;4.25;3.30;;;30.50;36.60;;;;;;5070779;28;20228;-79
2022/08/11 12:09:41;;;;;;;4.85;3.25;;;30.50;37.30;;;;;;5068805;28;20192;-79
2022/08/11 12:15:08;;;;;;;5.15;3.20;;;30.70;37.10;;;;;;5065918;28;20690;-80
2022/08/11 12:17:36;;;;;;;4.18;3.42;;;30.90;36.70;;;;;;5062464;28;20205;-80
2022/08/11 12:20:07;;;;;;;5.05;4.07;;;31.00;36.70;;;;;;5071477;28;20201;-80
2022/08/11 12:28:16;;;;;;;4.03;3.42;;;31.30;34.60;;;;;;5069518;28;20216;-81
2022/08/11 12:30:52;;;;;;;5.10;3.50;;;30.90;35.30;;;;;;5076804;28;20197;-81
2022/08/11 12:33:21;;;;;;;4.32;3.22;;;31.20;35.40;;;;;;5070065;28;20660;-80
2022/08/11 12:35:59;;;;;;;3.80;3.22;;;31.40;35.20;;;;;;5071557;28;20603;-81
2022/08/11 12:38:27;;;;;;;4.13;3.40;;;31.60;34.80;;;;;;5078311;28;20217;-81
2022/08/11 12:46:36;;;;;;;6.10;3.67;;;31.70;34.60;;;;;;5075353;28;20209;-81
2022/08/11 12:52:07;;;;;;;4.45;4.05;;;31.90;34.00;;;;;;5076973;28;20190;-81
2022/08/11 12:54:43;;;;;;;3.97;3.40;;;31.90;33.60;;;;;;5072437;28;20205;-81
2022/08/11 13:05:42;;;;;;;4.07;3.42;;;32.40;32.80;;;;;;5084566;28;20686;-80
2022/08/11 13:08:12;;;;;;;3.95;3.60;;;32.20;33.10;;;;;;5069634;28;20213;-80
2022/08/11 13:13:31;;;;;;;4.68;3.15;;;32.20;33.20;;;;;;5069243;28;20201;-80
2022/08/11 13:15:59;;;;;;;3.28;3.08;;;32.40;33.00;;;;;;5073443;28;20688;-80
2022/08/11 13:18:27;;;;;;;4.38;3.85;;;32.50;32.10;;;;;;5072182;28;20214;-80
2022/08/11 13:20:58;;;;;;;4.20;3.30;;;32.70;32.20;;;;;;5072965;28;20205;-80
2022/08/11 13:23:30;;;;;;;3.72;3.42;;;32.80;31.60;;;;;;5068932;28;20194;-80
2022/08/11 13:25:58;;;;;;;4.50;3.13;;;32.70;32.10;;;;;;5075053;28;20196;-80
2022/08/11 13:28:26;;;;;;;4.30;3.45;;;32.80;31.70;;;;;;5070912;28;20567;-80
2022/08/11 13:31:13;;;;;;;4.25;2.95;;;33.10;31.20;;;;;;5069872;28;20220;-80
2022/08/11 13:33:50;;;;;;;3.83;3.53;;;32.80;31.00;;;;;;5068589;28;20205;-80
2022/08/11 13:36:27;;;;;;;4.25;3.28;;;32.90;31.30;;;;;;5069768;28;20202;-80
2022/08/11 13:38:57;;;;;;;6.82;3.50;;;33.20;30.50;;;;;;5071882;28;20216;-80
2022/08/11 13:41:39;;;;;;;4.20;3.30;;;33.50;29.80;;;;;;5072103;28;20197;-81
2022/08/11 13:44:11;;;;;;;4.57;2.85;;;33.70;29.80;;;;;;5071435;28;20194;-80
2022/08/11 13:46:41;;;;;;;5.30;3.50;;;33.50;30.00;;;;;;5072392;28;20256;-80
2022/08/11 13:49:10;;;;;;;5.65;3.08;;;33.40;29.80;;;;;;5072328;28;20198;-80
2022/08/11 13:51:39;;;;;;;4.72;3.50;;;33.40;29.50;;;;;;5072979;28;20198;-80
2022/08/11 13:54:10;;;;;;;3.38;3.08;;;33.90;30.00;;;;;;5073487;28;20201;-80
2022/08/11 13:56:42;;;;;;;5.80;3.17;;;34.10;29.00;;;;;;5072787;28;20235;-80
2022/08/11 13:59:11;;;;;;;4.78;3.00;;;34.10;28.80;;;;;;5073437;28;20204;-80
2022/08/11 14:01:40;;;;;;;4.65;3.10;;;34.20;29.00;;;;;;5073623;28;20560;-80
2022/08/11 14:04:20;;;;;;;3.10;2.90;;;34.40;28.70;;;;;;5073948;28;20193;-80
2022/08/11 14:06:53;;;;;;;3.53;2.67;;;34.50;28.60;;;;;;5069870;28;20222;-80
2022/08/11 14:09:26;;;;;;;3.60;3.30;;;34.70;27.70;;;;;;5073066;28;20205;-80
2022/08/11 14:14:49;;;;;;;3.30;2.55;;;34.40;27.40;;;;;;5072539;28;20193;-80
2022/08/11 14:17:35;;;;;;;4.15;3.00;;;34.50;27.60;;;;;;5064816;28;20224;-80
2022/08/11 14:20:08;;;;;;;3.65;2.90;;;33.70;28.70;;;;;;5069085;28;20209;-80
2022/08/11 14:22:45;;;;;;;3.22;3.00;;;34.00;28.00;;;;;;5073755;28;20186;-80
2022/08/11 14:25:15;;;;;;;2.92;2.72;;;33.30;27.20;;;;;;5069812;28;20651;-80
2022/08/11 14:27:48;;;;;;;4.60;3.35;;;33.20;28.00;;;;;;5068747;28;20216;-80
2022/08/11 14:32:57;;;;;;;6.30;3.05;;;34.40;28.00;;;;;;5064057;28;20194;-80
2022/08/11 14:35:27;;;;;;;4.22;3.25;;;34.00;27.60;;;;;;5072366;28;20202;-80
2022/08/11 14:37:57;;;;;;;3.47;3.20;;;34.20;27.10;;;;;;5072268;28;20218;-80
2022/08/11 14:48:42;;;;;;;4.75;3.47;;;35.10;26.80;;;;;;5053794;28;20206;-80
2022/08/11 14:51:42;;;;;;;3.20;2.90;;;35.30;26.30;;;;;;5068214;28;20201;-80
2022/08/11 14:56:57;;;;;;;3.22;2.78;;;34.90;25.40;;;;;;5072379;28;20229;-80
2022/08/11 14:59:25;;;;;;;3.58;3.10;;;34.70;26.10;;;;;;5072455;28;20193;-80
2022/08/11 15:04:48;;;;;;;4.18;2.92;;;35.30;25.60;;;;;;5072286;28;20228;-80
2022/08/11 15:07:16;;;;;;;4.65;3.58;;;35.40;25.10;;;;;;5067225;28;20576;-80
2022/08/11 15:09:44;;;;;;;2.90;2.70;;;35.10;25.30;;;;;;5065509;28;20206;-80
2022/08/11 15:12:17;;;;;;;4.88;3.03;;;35.20;25.40;;;;;;5072292;28;20687;-81
2022/08/11 15:17:32;;;;;;;3.17;2.67;;;35.50;25.50;;;;;;5066417;28;20229;-81
2022/08/11 15:25:34;;;;;;;3.10;2.90;;;34.80;25.70;;;;;;5071769;28;20181;-81
2022/08/11 15:39:31;;;;;;;3.88;3.00;;;34.50;26.10;;;;;;5074147;28;20193;-81
2022/08/11 15:47:56;;;;;;;3.97;2.83;;;35.50;25.40;;;;;;5072928;28;20232;-82
2022/08/11 15:50:28;;;;;;;4.10;3.30;;;35.70;25.20;;;;;;5072348;28;20205;-81
2022/08/11 15:52:59;;;;;;;3.50;3.20;;;35.70;25.30;;;;;;5077258;28;20197;-81
2022/08/11 15:55:31;;;;;;;2.97;2.78;;;34.70;25.20;;;;;;5072346;28;20197;-81
2022/08/11 16:06:28;;;;;;;3.70;3.03;;;34.20;26.00;;;;;;5068992;28;20186;-80
2022/08/11 16:09:04;;;;;;;5.18;3.63;;;34.00;26.00;;;;;;5072013;28;20567;-80
2022/08/11 16:11:37;;;;;;;4.47;3.22;;;34.50;25.90;;;;;;5074498;28;20208;-80
2022/08/11 16:16:54;;;;;;;5.03;2.95;;;34.60;25.80;;;;;;5077936;28;20217;-80
2022/08/11 16:19:23;;;;;;;3.22;2.92;;;33.80;26.00;;;;;;5076626;28;20206;-80
2022/08/11 16:21:52;;;;;;;3.42;3.13;;;34.30;26.70;;;;;;5068788;28;20192;-80
2022/08/11 16:24:22;;;;;;;3.38;2.90;;;34.70;26.10;;;;;;5076377;28;20576;-80
2022/08/11 16:26:54;;;;;;;3.58;3.15;;;35.00;26.00;;;;;;5075145;28;20218;-80
2022/08/11 16:29:24;;;;;;;5.28;3.17;;;34.80;26.10;;;;;;5077890;28;20208;-80
2022/08/11 16:40:15;;;;;;;3.53;3.22;;;34.70;25.90;;;;;;5067871;28;20208;-80
2022/08/11 16:48:21;;;;;;;3.60;3.30;;;34.20;25.20;;;;;;5058160;28;20221;-81
2022/08/11 16:50:49;;;;;;;4.75;3.20;;;33.50;25.90;;;;;;5074745;28;20205;-81
2022/08/11 16:53:17;;;;;;;3.88;3.35;;;33.20;26.10;;;;;;5075693;28;20198;-81
2022/08/11 16:55:47;;;;;;;5.30;3.20;;;33.00;26.60;;;;;;5073325;28;20198;-81
2022/08/11 17:01:06;;;;;;;4.30;3.28;;;33.60;25.80;;;;;;5072156;28;20202;-81
2022/08/11 17:15:00;;;;;;;3.88;3.58;;;33.30;26.60;;;;;;5075179;28;20208;-81
2022/08/11 17:17:33;;;;;;;3.25;2.97;;;33.80;26.60;;;;;;5075611;28;20703;-81
2022/08/11 17:20:08;;;;;;;3.90;3.50;;;33.90;26.60;;;;;;5069020;28;20201;-80
2022/08/11 17:25:27;;;;;;;4.22;3.70;;;33.50;26.80;;;;;;5070688;28;20194;-80
2022/08/11 17:27:59;;;;;;;4.25;3.22;;;33.70;27.00;;;;;;5073481;28;20584;-80
2022/08/11 17:35:27;;;;;;;6.38;3.38;;;33.60;26.70;;;;;;5073105;28;20194;-80
2022/08/11 17:36:23;;;;;;;6.03;2.72;;;33.40;27.20;;;;;;5040128;28;20194;-80
2022/08/11 17:38:52;;;;;;;6.28;3.72;;;33.70;26.60;;;;;;5038687;28;20219;-79
2022/08/11 17:49:39;;;;;;;4.03;3.33;;;33.20;27.50;;;;;;5078918;28;20212;-80
2022/08/11 18:00:45;;;;;;;3.70;3.40;;;33.10;28.60;;;;;;5021856;28;20203;-80
2022/08/11 18:03:32;;;;;;;3.90;3.55;;;33.20;28.60;;;;;;5015798;28;20215;-80
2022/08/11 18:06:02;;;;;;;6.03;3.88;;;33.00;28.10;;;;;;5053464;28;20202;-79
